Terminal Aerodrome Forecast
Issued by NWS Des Moines, IA

Current Version | Previous Version | Text Only | Print | Product List | Glossary On
Versions: 1 2 3 4 5 6 7 8 9 10 11 12 13 14 15 16 17 18 19 20 21 22 23 24 25 26 27 28 29 30 31 32 33 34 35 36 37 38
000
FTUS43 KDMX 281721
TAFDSM
TAF
KDSM 281721Z 2818/2918 16018KT P6SM FEW015 OVC260
     FM290200 22007KT P6SM OVC260
     FM290600 32017G26KT 5SM BR BKN015
     FM291200 33023G34KT P6SM BKN025=

USA.gov is the U.S. government's official web portal to all federal, state and local government web resources and services.